sensor_id;sensor_type;location;lat;lon;timestamp;P1;durP1;ratioP1;P2;durP2;ratioP2
63050;SDS011;49136;47.416;19.402;2023-04-12T00:01:46;2.65;;;1.77;;
63050;SDS011;49136;47.416;19.402;2023-04-12T00:04:12;1.70;;;1.17;;
63050;SDS011;49136;47.416;19.402;2023-04-12T00:06:38;3.00;;;1.75;;
63050;SDS011;49136;47.416;19.402;2023-04-12T00:09:04;4.70;;;2.22;;
63050;SDS011;49136;47.416;19.402;2023-04-12T00:11:30;3.55;;;1.23;;
63050;SDS011;49136;47.416;19.402;2023-04-12T00:13:55;2.42;;;1.67;;
63050;SDS011;49136;47.416;19.402;2023-04-12T00:16:21;3.70;;;1.73;;
63050;SDS011;49136;47.416;19.402;2023-04-12T00:18:47;4.07;;;2.08;;
63050;SDS011;49136;47.416;19.402;2023-04-12T00:21:12;4.32;;;1.75;;
63050;SDS011;49136;47.416;19.402;2023-04-12T00:23:41;3.00;;;1.80;;
63050;SDS011;49136;47.416;19.402;2023-04-12T00:26:09;5.82;;;2.38;;
63050;SDS011;49136;47.416;19.402;2023-04-12T00:28:34;3.70;;;1.92;;
63050;SDS011;49136;47.416;19.402;2023-04-12T00:30:59;4.43;;;1.88;;
63050;SDS011;49136;47.416;19.402;2023-04-12T00:33:25;2.83;;;1.30;;
63050;SDS011;49136;47.416;19.402;2023-04-12T00:35:50;1.20;;;1.00;;
63050;SDS011;49136;47.416;19.402;2023-04-12T00:38:16;5.03;;;1.30;;
63050;SDS011;49136;47.416;19.402;2023-04-12T00:40:41;2.95;;;1.15;;
63050;SDS011;49136;47.416;19.402;2023-04-12T00:43:07;8.68;;;1.98;;
63050;SDS011;49136;47.416;19.402;2023-04-12T00:45:39;8.45;;;1.38;;
63050;SDS011;49136;47.416;19.402;2023-04-12T00:48:05;4.57;;;1.20;;
63050;SDS011;49136;47.416;19.402;2023-04-12T00:50:32;4.20;;;1.65;;
63050;SDS011;49136;47.416;19.402;2023-04-12T00:52:59;3.47;;;1.58;;
63050;SDS011;49136;47.416;19.402;2023-04-12T00:55:25;2.25;;;1.30;;
63050;SDS011;49136;47.416;19.402;2023-04-12T00:57:50;4.80;;;2.05;;
63050;SDS011;49136;47.416;19.402;2023-04-12T01:00:16;6.70;;;1.83;;
63050;SDS011;49136;47.416;19.402;2023-04-12T01:02:43;3.67;;;1.52;;
63050;SDS011;49136;47.416;19.402;2023-04-12T01:05:11;4.20;;;1.88;;
63050;SDS011;49136;47.416;19.402;2023-04-12T01:13:13;2.90;;;1.48;;
63050;SDS011;49136;47.416;19.402;2023-04-12T01:15:53;6.22;;;1.95;;
63050;SDS011;49136;47.416;19.402;2023-04-12T01:18:24;7.50;;;2.90;;
63050;SDS011;49136;47.416;19.402;2023-04-12T01:20:54;3.20;;;1.77;;
63050;SDS011;49136;47.416;19.402;2023-04-12T01:23:30;2.92;;;2.00;;
63050;SDS011;49136;47.416;19.402;2023-04-12T01:28:56;7.57;;;1.90;;
63050;SDS011;49136;47.416;19.402;2023-04-12T01:31:24;4.05;;;1.90;;
63050;SDS011;49136;47.416;19.402;2023-04-12T01:33:52;5.13;;;1.52;;
63050;SDS011;49136;47.416;19.402;2023-04-12T01:36:19;6.13;;;2.10;;
63050;SDS011;49136;47.416;19.402;2023-04-12T01:38:47;3.50;;;1.92;;
63050;SDS011;49136;47.416;19.402;2023-04-12T01:41:13;6.30;;;2.63;;
63050;SDS011;49136;47.416;19.402;2023-04-12T01:43:40;8.55;;;2.47;;
63050;SDS011;49136;47.416;19.402;2023-04-12T01:46:13;6.03;;;3.00;;
63050;SDS011;49136;47.416;19.402;2023-04-12T01:48:40;3.45;;;1.92;;
63050;SDS011;49136;47.416;19.402;2023-04-12T01:51:13;13.60;;;2.55;;
63050;SDS011;49136;47.416;19.402;2023-04-12T01:53:47;6.72;;;2.97;;
63050;SDS011;49136;47.416;19.402;2023-04-12T01:56:18;5.50;;;2.47;;
63050;SDS011;49136;47.416;19.402;2023-04-12T01:58:46;2.65;;;2.17;;
63050;SDS011;49136;47.416;19.402;2023-04-12T02:01:15;6.20;;;2.60;;
63050;SDS011;49136;47.416;19.402;2023-04-12T02:03:43;4.53;;;2.42;;
63050;SDS011;49136;47.416;19.402;2023-04-12T02:06:10;5.43;;;3.08;;
63050;SDS011;49136;47.416;19.402;2023-04-12T02:08:36;7.70;;;3.03;;
63050;SDS011;49136;47.416;19.402;2023-04-12T02:11:11;7.72;;;2.83;;
63050;SDS011;49136;47.416;19.402;2023-04-12T02:13:36;7.10;;;2.85;;
63050;SDS011;49136;47.416;19.402;2023-04-12T02:16:02;6.22;;;2.15;;
63050;SDS011;49136;47.416;19.402;2023-04-12T02:18:28;3.85;;;1.75;;
63050;SDS011;49136;47.416;19.402;2023-04-12T02:20:54;2.78;;;1.83;;
63050;SDS011;49136;47.416;19.402;2023-04-12T02:23:20;5.50;;;2.60;;
63050;SDS011;49136;47.416;19.402;2023-04-12T02:25:46;3.63;;;2.35;;
63050;SDS011;49136;47.416;19.402;2023-04-12T02:28:11;3.50;;;2.25;;
63050;SDS011;49136;47.416;19.402;2023-04-12T02:30:37;6.07;;;3.03;;
63050;SDS011;49136;47.416;19.402;2023-04-12T02:33:05;4.25;;;2.22;;
63050;SDS011;49136;47.416;19.402;2023-04-12T02:35:33;4.63;;;2.25;;
63050;SDS011;49136;47.416;19.402;2023-04-12T02:38:00;4.97;;;2.55;;
63050;SDS011;49136;47.416;19.402;2023-04-12T02:40:28;4.70;;;2.60;;
63050;SDS011;49136;47.416;19.402;2023-04-12T02:42:54;6.15;;;2.90;;
63050;SDS011;49136;47.416;19.402;2023-04-12T02:45:19;9.77;;;3.10;;
63050;SDS011;49136;47.416;19.402;2023-04-12T02:47:45;6.55;;;2.95;;
63050;SDS011;49136;47.416;19.402;2023-04-12T02:50:10;6.03;;;2.88;;
63050;SDS011;49136;47.416;19.402;2023-04-12T02:52:35;7.70;;;2.78;;
63050;SDS011;49136;47.416;19.402;2023-04-12T02:55:01;3.40;;;2.25;;
63050;SDS011;49136;47.416;19.402;2023-04-12T02:57:27;6.45;;;3.03;;
63050;SDS011;49136;47.416;19.402;2023-04-12T02:59:52;4.95;;;2.95;;
63050;SDS011;49136;47.416;19.402;2023-04-12T03:02:19;7.38;;;2.97;;
63050;SDS011;49136;47.416;19.402;2023-04-12T03:04:45;5.55;;;3.25;;
63050;SDS011;49136;47.416;19.402;2023-04-12T03:07:15;6.95;;;2.58;;
63050;SDS011;49136;47.416;19.402;2023-04-12T03:09:42;4.22;;;1.95;;
63050;SDS011;49136;47.416;19.402;2023-04-12T03:12:09;6.32;;;3.00;;
63050;SDS011;49136;47.416;19.402;2023-04-12T03:14:34;9.32;;;3.78;;
63050;SDS011;49136;47.416;19.402;2023-04-12T03:17:00;6.28;;;3.53;;
63050;SDS011;49136;47.416;19.402;2023-04-12T03:19:25;6.20;;;3.10;;
63050;SDS011;49136;47.416;19.402;2023-04-12T03:21:52;6.47;;;2.78;;
63050;SDS011;49136;47.416;19.402;2023-04-12T03:24:18;7.78;;;2.85;;
63050;SDS011;49136;47.416;19.402;2023-04-12T03:26:43;8.48;;;2.88;;
63050;SDS011;49136;47.416;19.402;2023-04-12T03:29:09;5.05;;;3.38;;
63050;SDS011;49136;47.416;19.402;2023-04-12T03:31:34;5.22;;;2.17;;
63050;SDS011;49136;47.416;19.402;2023-04-12T03:34:00;9.32;;;3.63;;
63050;SDS011;49136;47.416;19.402;2023-04-12T03:36:26;4.25;;;2.20;;
63050;SDS011;49136;47.416;19.402;2023-04-12T03:38:52;6.10;;;2.92;;
63050;SDS011;49136;47.416;19.402;2023-04-12T03:41:17;7.22;;;3.92;;
63050;SDS011;49136;47.416;19.402;2023-04-12T03:43:45;5.78;;;3.08;;
63050;SDS011;49136;47.416;19.402;2023-04-12T03:46:10;10.90;;;4.65;;
63050;SDS011;49136;47.416;19.402;2023-04-12T03:48:39;3.83;;;2.00;;
63050;SDS011;49136;47.416;19.402;2023-04-12T03:51:05;7.35;;;3.10;;
63050;SDS011;49136;47.416;19.402;2023-04-12T03:53:31;3.50;;;1.85;;
63050;SDS011;49136;47.416;19.402;2023-04-12T03:55:57;7.05;;;2.95;;
63050;SDS011;49136;47.416;19.402;2023-04-12T03:58:23;10.60;;;3.85;;
63050;SDS011;49136;47.416;19.402;2023-04-12T04:00:48;3.50;;;1.50;;
63050;SDS011;49136;47.416;19.402;2023-04-12T04:03:14;4.13;;;2.30;;
63050;SDS011;49136;47.416;19.402;2023-04-12T04:05:40;9.77;;;3.83;;
63050;SDS011;49136;47.416;19.402;2023-04-12T04:08:06;7.97;;;3.88;;
63050;SDS011;49136;47.416;19.402;2023-04-12T04:10:32;10.45;;;4.00;;
63050;SDS011;49136;47.416;19.402;2023-04-12T04:12:58;7.45;;;3.78;;
63050;SDS011;49136;47.416;19.402;2023-04-12T04:15:24;6.18;;;3.25;;
63050;SDS011;49136;47.416;19.402;2023-04-12T04:17:50;5.05;;;2.33;;
63050;SDS011;49136;47.416;19.402;2023-04-12T04:20:16;8.00;;;3.13;;
63050;SDS011;49136;47.416;19.402;2023-04-12T04:22:42;5.95;;;3.00;;
63050;SDS011;49136;47.416;19.402;2023-04-12T04:25:09;6.75;;;3.40;;
63050;SDS011;49136;47.416;19.402;2023-04-12T04:27:38;6.40;;;3.58;;
63050;SDS011;49136;47.416;19.402;2023-04-12T04:30:04;7.03;;;3.60;;
63050;SDS011;49136;47.416;19.402;2023-04-12T04:32:31;4.90;;;2.17;;
63050;SDS011;49136;47.416;19.402;2023-04-12T04:34:57;5.10;;;2.40;;
63050;SDS011;49136;47.416;19.402;2023-04-12T04:37:30;9.10;;;3.95;;
63050;SDS011;49136;47.416;19.402;2023-04-12T04:39:56;10.45;;;3.92;;
63050;SDS011;49136;47.416;19.402;2023-04-12T04:42:24;10.77;;;4.18;;
63050;SDS011;49136;47.416;19.402;2023-04-12T04:44:49;31.52;;;8.35;;
63050;SDS011;49136;47.416;19.402;2023-04-12T04:47:15;12.05;;;4.45;;
63050;SDS011;49136;47.416;19.402;2023-04-12T04:49:41;16.38;;;4.78;;
63050;SDS011;49136;47.416;19.402;2023-04-12T04:52:08;8.20;;;4.10;;
63050;SDS011;49136;47.416;19.402;2023-04-12T04:54:33;8.38;;;3.53;;
63050;SDS011;49136;47.416;19.402;2023-04-12T04:57:00;6.68;;;3.53;;
63050;SDS011;49136;47.416;19.402;2023-04-12T04:59:25;8.70;;;3.58;;
63050;SDS011;49136;47.416;19.402;2023-04-12T05:01:51;7.55;;;3.28;;
63050;SDS011;49136;47.416;19.402;2023-04-12T05:04:16;8.68;;;3.53;;
63050;SDS011;49136;47.416;19.402;2023-04-12T05:06:42;5.70;;;2.53;;
63050;SDS011;49136;47.416;19.402;2023-04-12T05:09:07;8.35;;;3.78;;
63050;SDS011;49136;47.416;19.402;2023-04-12T05:11:33;7.57;;;3.90;;
63050;SDS011;49136;47.416;19.402;2023-04-12T05:13:58;6.53;;;3.08;;
63050;SDS011;49136;47.416;19.402;2023-04-12T05:16:24;6.80;;;4.07;;
63050;SDS011;49136;47.416;19.402;2023-04-12T05:18:50;14.68;;;5.13;;
63050;SDS011;49136;47.416;19.402;2023-04-12T05:21:15;11.98;;;5.80;;
63050;SDS011;49136;47.416;19.402;2023-04-12T05:23:41;17.02;;;5.00;;
63050;SDS011;49136;47.416;19.402;2023-04-12T05:26:08;14.43;;;4.30;;
63050;SDS011;49136;47.416;19.402;2023-04-12T05:28:33;7.70;;;4.03;;
63050;SDS011;49136;47.416;19.402;2023-04-12T05:30:59;13.77;;;4.28;;
63050;SDS011;49136;47.416;19.402;2023-04-12T05:33:24;24.50;;;5.45;;
63050;SDS011;49136;47.416;19.402;2023-04-12T05:35:50;12.85;;;4.47;;
63050;SDS011;49136;47.416;19.402;2023-04-12T05:38:15;17.27;;;6.18;;
63050;SDS011;49136;47.416;19.402;2023-04-12T05:40:41;13.73;;;5.32;;
63050;SDS011;49136;47.416;19.402;2023-04-12T05:43:08;8.13;;;3.80;;
63050;SDS011;49136;47.416;19.402;2023-04-12T05:45:36;10.57;;;4.25;;
63050;SDS011;49136;47.416;19.402;2023-04-12T05:48:05;8.55;;;4.13;;
63050;SDS011;49136;47.416;19.402;2023-04-12T05:50:31;11.88;;;4.05;;
63050;SDS011;49136;47.416;19.402;2023-04-12T05:52:56;9.82;;;4.00;;
63050;SDS011;49136;47.416;19.402;2023-04-12T05:55:21;5.50;;;3.30;;
63050;SDS011;49136;47.416;19.402;2023-04-12T05:57:47;7.80;;;2.80;;
63050;SDS011;49136;47.416;19.402;2023-04-12T06:00:12;4.40;;;2.40;;
63050;SDS011;49136;47.416;19.402;2023-04-12T06:02:42;5.72;;;2.72;;
63050;SDS011;49136;47.416;19.402;2023-04-12T06:05:11;6.45;;;2.63;;
63050;SDS011;49136;47.416;19.402;2023-04-12T06:07:38;6.22;;;2.42;;
63050;SDS011;49136;47.416;19.402;2023-04-12T06:10:04;7.38;;;3.78;;
63050;SDS011;49136;47.416;19.402;2023-04-12T06:12:31;7.40;;;2.17;;
63050;SDS011;49136;47.416;19.402;2023-04-12T06:14:56;6.40;;;3.05;;
63050;SDS011;49136;47.416;19.402;2023-04-12T06:17:22;4.15;;;2.15;;
63050;SDS011;49136;47.416;19.402;2023-04-12T06:19:47;3.70;;;1.92;;
63050;SDS011;49136;47.416;19.402;2023-04-12T06:22:13;4.18;;;1.80;;
63050;SDS011;49136;47.416;19.402;2023-04-12T06:24:39;3.65;;;1.95;;
63050;SDS011;49136;47.416;19.402;2023-04-12T06:27:05;4.97;;;2.20;;
63050;SDS011;49136;47.416;19.402;2023-04-12T06:29:30;4.65;;;2.03;;
63050;SDS011;49136;47.416;19.402;2023-04-12T06:31:56;3.10;;;2.08;;
63050;SDS011;49136;47.416;19.402;2023-04-12T06:34:21;1.85;;;1.48;;
63050;SDS011;49136;47.416;19.402;2023-04-12T06:36:46;4.25;;;1.95;;
63050;SDS011;49136;47.416;19.402;2023-04-12T06:39:12;5.72;;;2.45;;
63050;SDS011;49136;47.416;19.402;2023-04-12T06:41:40;3.42;;;2.42;;
63050;SDS011;49136;47.416;19.402;2023-04-12T06:44:07;4.30;;;2.25;;
63050;SDS011;49136;47.416;19.402;2023-04-12T06:46:33;3.20;;;2.00;;
63050;SDS011;49136;47.416;19.402;2023-04-12T06:48:58;3.97;;;2.00;;
63050;SDS011;49136;47.416;19.402;2023-04-12T06:51:24;7.40;;;2.03;;
63050;SDS011;49136;47.416;19.402;2023-04-12T06:53:49;5.05;;;2.33;;
63050;SDS011;49136;47.416;19.402;2023-04-12T06:56:15;3.03;;;2.17;;
63050;SDS011;49136;47.416;19.402;2023-04-12T06:58:40;4.38;;;2.50;;
63050;SDS011;49136;47.416;19.402;2023-04-12T07:01:06;3.22;;;1.73;;
63050;SDS011;49136;47.416;19.402;2023-04-12T07:03:32;4.78;;;1.98;;
63050;SDS011;49136;47.416;19.402;2023-04-12T07:05:59;3.67;;;2.45;;
63050;SDS011;49136;47.416;19.402;2023-04-12T07:08:26;5.25;;;2.17;;
63050;SDS011;49136;47.416;19.402;2023-04-12T07:10:56;6.00;;;2.58;;
63050;SDS011;49136;47.416;19.402;2023-04-12T07:13:22;3.58;;;2.28;;
63050;SDS011;49136;47.416;19.402;2023-04-12T07:15:48;4.95;;;2.72;;
63050;SDS011;49136;47.416;19.402;2023-04-12T07:18:14;3.33;;;2.10;;
63050;SDS011;49136;47.416;19.402;2023-04-12T07:20:40;5.20;;;2.20;;
63050;SDS011;49136;47.416;19.402;2023-04-12T07:23:05;5.15;;;2.60;;
63050;SDS011;49136;47.416;19.402;2023-04-12T07:25:31;3.30;;;1.92;;
63050;SDS011;49136;47.416;19.402;2023-04-12T07:27:56;3.42;;;2.47;;
63050;SDS011;49136;47.416;19.402;2023-04-12T07:30:21;6.90;;;2.47;;
63050;SDS011;49136;47.416;19.402;2023-04-12T07:32:47;16.67;;;3.08;;
63050;SDS011;49136;47.416;19.402;2023-04-12T07:35:13;5.53;;;2.78;;
63050;SDS011;49136;47.416;19.402;2023-04-12T07:37:38;4.93;;;3.00;;
63050;SDS011;49136;47.416;19.402;2023-04-12T07:40:05;8.07;;;3.05;;
63050;SDS011;49136;47.416;19.402;2023-04-12T07:42:31;6.68;;;3.63;;
63050;SDS011;49136;47.416;19.402;2023-04-12T07:44:56;7.88;;;3.10;;
63050;SDS011;49136;47.416;19.402;2023-04-12T07:47:22;5.18;;;3.28;;
63050;SDS011;49136;47.416;19.402;2023-04-12T07:49:47;7.20;;;2.75;;
63050;SDS011;49136;47.416;19.402;2023-04-12T07:52:13;4.43;;;2.45;;
63050;SDS011;49136;47.416;19.402;2023-04-12T07:54:38;5.00;;;3.03;;
63050;SDS011;49136;47.416;19.402;2023-04-12T07:57:04;5.03;;;2.42;;
63050;SDS011;49136;47.416;19.402;2023-04-12T07:59:29;5.63;;;2.85;;
63050;SDS011;49136;47.416;19.402;2023-04-12T08:01:55;4.38;;;2.17;;
63050;SDS011;49136;47.416;19.402;2023-04-12T08:04:21;4.03;;;2.05;;
63050;SDS011;49136;47.416;19.402;2023-04-12T08:06:46;5.00;;;2.85;;
63050;SDS011;49136;47.416;19.402;2023-04-12T08:09:12;5.20;;;3.00;;
63050;SDS011;49136;47.416;19.402;2023-04-12T08:11:37;3.53;;;2.30;;
63050;SDS011;49136;47.416;19.402;2023-04-12T08:14:03;4.03;;;2.63;;
63050;SDS011;49136;47.416;19.402;2023-04-12T08:16:28;4.50;;;2.63;;
63050;SDS011;49136;47.416;19.402;2023-04-12T08:18:54;5.35;;;3.33;;
63050;SDS011;49136;47.416;19.402;2023-04-12T08:21:20;5.15;;;2.42;;
63050;SDS011;49136;47.416;19.402;2023-04-12T08:23:47;5.75;;;2.70;;
63050;SDS011;49136;47.416;19.402;2023-04-12T08:26:14;9.82;;;4.45;;
63050;SDS011;49136;47.416;19.402;2023-04-12T08:28:40;5.40;;;2.97;;
63050;SDS011;49136;47.416;19.402;2023-04-12T08:31:08;6.38;;;3.67;;
63050;SDS011;49136;47.416;19.402;2023-04-12T08:33:33;8.70;;;4.47;;
63050;SDS011;49136;47.416;19.402;2023-04-12T08:35:59;5.75;;;3.60;;
63050;SDS011;49136;47.416;19.402;2023-04-12T08:38:25;5.10;;;3.10;;
63050;SDS011;49136;47.416;19.402;2023-04-12T08:40:51;6.82;;;3.13;;
63050;SDS011;49136;47.416;19.402;2023-04-12T08:43:16;4.63;;;2.25;;
63050;SDS011;49136;47.416;19.402;2023-04-12T08:45:46;4.57;;;2.60;;
63050;SDS011;49136;47.416;19.402;2023-04-12T08:48:13;3.90;;;2.47;;
63050;SDS011;49136;47.416;19.402;2023-04-12T08:50:41;4.80;;;2.97;;
63050;SDS011;49136;47.416;19.402;2023-04-12T08:53:08;5.05;;;2.72;;
63050;SDS011;49136;47.416;19.402;2023-04-12T08:55:34;9.02;;;2.80;;
63050;SDS011;49136;47.416;19.402;2023-04-12T08:58:00;5.25;;;3.13;;
63050;SDS011;49136;47.416;19.402;2023-04-12T09:00:31;7.80;;;3.13;;
63050;SDS011;49136;47.416;19.402;2023-04-12T09:02:57;6.50;;;3.20;;
63050;SDS011;49136;47.416;19.402;2023-04-12T09:05:30;5.53;;;2.80;;
63050;SDS011;49136;47.416;19.402;2023-04-12T09:07:56;4.10;;;2.65;;
63050;SDS011;49136;47.416;19.402;2023-04-12T09:10:35;6.97;;;3.15;;
63050;SDS011;49136;47.416;19.402;2023-04-12T09:13:02;3.65;;;2.75;;
63050;SDS011;49136;47.416;19.402;2023-04-12T09:15:28;3.35;;;2.33;;
63050;SDS011;49136;47.416;19.402;2023-04-12T09:20:29;2.42;;;2.00;;
63050;SDS011;49136;47.416;19.402;2023-04-12T09:22:54;2.75;;;2.00;;
63050;SDS011;49136;47.416;19.402;2023-04-12T09:25:39;3.38;;;2.00;;
63050;SDS011;49136;47.416;19.402;2023-04-12T09:28:24;5.68;;;2.15;;
63050;SDS011;49136;47.416;19.402;2023-04-12T09:30:51;4.05;;;2.47;;
63050;SDS011;49136;47.416;19.402;2023-04-12T09:33:21;3.30;;;2.38;;
63050;SDS011;49136;47.416;19.402;2023-04-12T09:35:58;6.70;;;2.78;;
63050;SDS011;49136;47.416;19.402;2023-04-12T09:38:26;7.60;;;2.38;;
63050;SDS011;49136;47.416;19.402;2023-04-12T09:40:52;8.82;;;3.42;;
63050;SDS011;49136;47.416;19.402;2023-04-12T09:43:18;5.85;;;2.88;;
63050;SDS011;49136;47.416;19.402;2023-04-12T09:45:44;4.22;;;2.67;;
63050;SDS011;49136;47.416;19.402;2023-04-12T09:48:19;4.55;;;2.95;;
63050;SDS011;49136;47.416;19.402;2023-04-12T09:50:57;5.50;;;3.20;;
63050;SDS011;49136;47.416;19.402;2023-04-12T09:53:23;6.43;;;2.38;;
63050;SDS011;49136;47.416;19.402;2023-04-12T09:55:50;9.30;;;2.67;;
63050;SDS011;49136;47.416;19.402;2023-04-12T09:58:17;4.75;;;2.88;;
63050;SDS011;49136;47.416;19.402;2023-04-12T10:00:45;4.72;;;3.20;;
63050;SDS011;49136;47.416;19.402;2023-04-12T10:03:11;4.60;;;2.88;;
63050;SDS011;49136;47.416;19.402;2023-04-12T10:05:37;3.95;;;2.45;;
63050;SDS011;49136;47.416;19.402;2023-04-12T10:08:04;4.95;;;2.65;;
63050;SDS011;49136;47.416;19.402;2023-04-12T10:10:30;4.78;;;2.70;;
63050;SDS011;49136;47.416;19.402;2023-04-12T10:12:56;2.72;;;2.00;;
63050;SDS011;49136;47.416;19.402;2023-04-12T10:15:22;3.17;;;2.45;;
63050;SDS011;49136;47.416;19.402;2023-04-12T10:17:53;3.70;;;2.20;;
63050;SDS011;49136;47.416;19.402;2023-04-12T10:20:19;4.40;;;2.42;;
63050;SDS011;49136;47.416;19.402;2023-04-12T10:22:47;3.58;;;2.70;;
63050;SDS011;49136;47.416;19.402;2023-04-12T10:25:14;4.13;;;2.33;;
63050;SDS011;49136;47.416;19.402;2023-04-12T10:27:41;4.50;;;2.30;;
63050;SDS011;49136;47.416;19.402;2023-04-12T10:30:18;4.72;;;2.63;;
63050;SDS011;49136;47.416;19.402;2023-04-12T10:32:46;6.88;;;2.63;;
63050;SDS011;49136;47.416;19.402;2023-04-12T10:35:12;2.83;;;2.05;;
63050;SDS011;49136;47.416;19.402;2023-04-12T10:40:26;4.00;;;2.30;;
63050;SDS011;49136;47.416;19.402;2023-04-12T10:45:46;7.75;;;2.97;;
63050;SDS011;49136;47.416;19.402;2023-04-12T10:51:32;3.60;;;2.28;;
63050;SDS011;49136;47.416;19.402;2023-04-12T10:53:52;3.25;;;2.13;;
63050;SDS011;49136;47.416;19.402;2023-04-12T10:56:39;4.20;;;2.20;;
63050;SDS011;49136;47.416;19.402;2023-04-12T10:59:08;4.43;;;2.70;;
63050;SDS011;49136;47.416;19.402;2023-04-12T11:01:36;4.55;;;2.72;;
63050;SDS011;49136;47.416;19.402;2023-04-12T11:04:09;5.55;;;3.10;;
63050;SDS011;49136;47.416;19.402;2023-04-12T11:06:41;8.52;;;2.70;;
63050;SDS011;49136;47.416;19.402;2023-04-12T11:09:17;4.60;;;2.50;;
63050;SDS011;49136;47.416;19.402;2023-04-12T11:11:45;4.38;;;2.83;;
63050;SDS011;49136;47.416;19.402;2023-04-12T11:14:15;3.08;;;2.25;;
63050;SDS011;49136;47.416;19.402;2023-04-12T11:19:52;6.80;;;3.17;;
63050;SDS011;49136;47.416;19.402;2023-04-12T11:22:23;4.40;;;2.75;;
63050;SDS011;49136;47.416;19.402;2023-04-12T11:24:56;5.03;;;3.30;;
63050;SDS011;49136;47.416;19.402;2023-04-12T11:27:23;4.10;;;2.53;;
63050;SDS011;49136;47.416;19.402;2023-04-12T11:29:51;6.22;;;3.22;;
63050;SDS011;49136;47.416;19.402;2023-04-12T11:32:21;3.17;;;2.28;;
63050;SDS011;49136;47.416;19.402;2023-04-12T11:34:48;4.32;;;3.15;;
63050;SDS011;49136;47.416;19.402;2023-04-12T11:37:14;5.47;;;2.80;;
63050;SDS011;49136;47.416;19.402;2023-04-12T11:39:42;4.85;;;2.97;;
63050;SDS011;49136;47.416;19.402;2023-04-12T11:42:12;4.57;;;3.00;;
63050;SDS011;49136;47.416;19.402;2023-04-12T11:47:17;6.10;;;3.10;;
63050;SDS011;49136;47.416;19.402;2023-04-12T11:49:49;6.82;;;3.08;;
63050;SDS011;49136;47.416;19.402;2023-04-12T11:52:19;3.45;;;2.42;;
63050;SDS011;49136;47.416;19.402;2023-04-12T11:54:47;6.05;;;2.90;;
63050;SDS011;49136;47.416;19.402;2023-04-12T11:57:15;3.95;;;2.50;;
63050;SDS011;49136;47.416;19.402;2023-04-12T11:59:43;4.60;;;2.38;;
63050;SDS011;49136;47.416;19.402;2023-04-12T12:02:10;5.78;;;2.20;;
63050;SDS011;49136;47.416;19.402;2023-04-12T12:04:36;4.60;;;2.15;;
63050;SDS011;49136;47.416;19.402;2023-04-12T12:07:02;4.70;;;2.13;;
63050;SDS011;49136;47.416;19.402;2023-04-12T12:09:28;3.53;;;2.50;;
63050;SDS011;49136;47.416;19.402;2023-04-12T12:11:53;4.70;;;2.42;;
63050;SDS011;49136;47.416;19.402;2023-04-12T12:14:20;5.32;;;3.22;;
63050;SDS011;49136;47.416;19.402;2023-04-12T12:16:50;5.20;;;2.90;;
63050;SDS011;49136;47.416;19.402;2023-04-12T12:19:42;3.72;;;2.40;;
63050;SDS011;49136;47.416;19.402;2023-04-12T12:22:18;5.00;;;2.58;;
63050;SDS011;49136;47.416;19.402;2023-04-12T12:24:51;5.97;;;3.00;;
63050;SDS011;49136;47.416;19.402;2023-04-12T12:27:38;8.88;;;3.00;;
63050;SDS011;49136;47.416;19.402;2023-04-12T12:30:07;4.50;;;2.75;;
63050;SDS011;49136;47.416;19.402;2023-04-12T12:32:34;6.63;;;2.45;;
63050;SDS011;49136;47.416;19.402;2023-04-12T12:35:02;4.53;;;2.50;;
63050;SDS011;49136;47.416;19.402;2023-04-12T12:37:33;4.20;;;2.50;;
63050;SDS011;49136;47.416;19.402;2023-04-12T12:40:08;6.20;;;3.13;;
63050;SDS011;49136;47.416;19.402;2023-04-12T12:42:47;3.40;;;2.60;;
63050;SDS011;49136;47.416;19.402;2023-04-12T12:45:15;6.25;;;2.80;;
63050;SDS011;49136;47.416;19.402;2023-04-12T12:47:46;3.22;;;2.40;;
63050;SDS011;49136;47.416;19.402;2023-04-12T12:50:13;5.05;;;2.97;;
63050;SDS011;49136;47.416;19.402;2023-04-12T12:52:41;5.97;;;3.40;;
63050;SDS011;49136;47.416;19.402;2023-04-12T12:55:08;7.45;;;3.72;;
63050;SDS011;49136;47.416;19.402;2023-04-12T12:57:34;3.63;;;2.33;;
63050;SDS011;49136;47.416;19.402;2023-04-12T12:59:59;6.30;;;2.53;;
63050;SDS011;49136;47.416;19.402;2023-04-12T13:02:25;3.40;;;2.45;;
63050;SDS011;49136;47.416;19.402;2023-04-12T13:04:50;4.50;;;2.60;;
63050;SDS011;49136;47.416;19.402;2023-04-12T13:07:18;5.32;;;2.95;;
63050;SDS011;49136;47.416;19.402;2023-04-12T13:09:44;4.95;;;2.70;;
63050;SDS011;49136;47.416;19.402;2023-04-12T13:12:10;3.03;;;1.95;;
63050;SDS011;49136;47.416;19.402;2023-04-12T13:14:35;6.30;;;2.08;;
63050;SDS011;49136;47.416;19.402;2023-04-12T13:17:01;4.13;;;2.83;;
63050;SDS011;49136;47.416;19.402;2023-04-12T13:19:26;3.75;;;2.33;;
63050;SDS011;49136;47.416;19.402;2023-04-12T13:21:52;4.18;;;2.60;;
63050;SDS011;49136;47.416;19.402;2023-04-12T13:24:17;5.78;;;2.50;;
63050;SDS011;49136;47.416;19.402;2023-04-12T13:26:43;10.23;;;2.40;;
63050;SDS011;49136;47.416;19.402;2023-04-12T13:29:08;3.92;;;2.08;;
63050;SDS011;49136;47.416;19.402;2023-04-12T13:31:33;8.82;;;2.15;;
63050;SDS011;49136;47.416;19.402;2023-04-12T13:33:59;4.03;;;1.90;;
63050;SDS011;49136;47.416;19.402;2023-04-12T13:36:24;7.15;;;2.40;;
63050;SDS011;49136;47.416;19.402;2023-04-12T13:38:51;6.10;;;2.72;;
63050;SDS011;49136;47.416;19.402;2023-04-12T13:41:16;4.72;;;2.53;;
63050;SDS011;49136;47.416;19.402;2023-04-12T13:43:43;3.72;;;2.50;;
63050;SDS011;49136;47.416;19.402;2023-04-12T13:46:08;3.50;;;2.08;;
63050;SDS011;49136;47.416;19.402;2023-04-12T13:48:33;5.28;;;2.83;;
63050;SDS011;49136;47.416;19.402;2023-04-12T13:50:59;5.93;;;2.58;;
63050;SDS011;49136;47.416;19.402;2023-04-12T13:53:24;4.70;;;2.38;;
63050;SDS011;49136;47.416;19.402;2023-04-12T13:55:50;5.22;;;2.40;;
63050;SDS011;49136;47.416;19.402;2023-04-12T13:58:15;4.15;;;2.08;;
63050;SDS011;49136;47.416;19.402;2023-04-12T14:00:42;4.20;;;2.17;;
63050;SDS011;49136;47.416;19.402;2023-04-12T14:03:07;3.00;;;2.00;;
63050;SDS011;49136;47.416;19.402;2023-04-12T14:05:33;4.20;;;2.45;;
63050;SDS011;49136;47.416;19.402;2023-04-12T14:07:58;8.65;;;2.53;;
63050;SDS011;49136;47.416;19.402;2023-04-12T14:10:24;10.25;;;2.38;;
63050;SDS011;49136;47.416;19.402;2023-04-12T14:12:49;5.03;;;2.17;;
63050;SDS011;49136;47.416;19.402;2023-04-12T14:15:15;2.85;;;1.80;;
63050;SDS011;49136;47.416;19.402;2023-04-12T14:17:41;9.13;;;2.80;;
63050;SDS011;49136;47.416;19.402;2023-04-12T14:20:07;7.47;;;2.38;;
63050;SDS011;49136;47.416;19.402;2023-04-12T14:22:36;4.80;;;2.42;;
63050;SDS011;49136;47.416;19.402;2023-04-12T14:25:02;6.25;;;2.50;;
63050;SDS011;49136;47.416;19.402;2023-04-12T14:27:27;4.85;;;2.33;;
63050;SDS011;49136;47.416;19.402;2023-04-12T14:29:53;6.72;;;2.47;;
63050;SDS011;49136;47.416;19.402;2023-04-12T14:32:18;3.65;;;1.83;;
63050;SDS011;49136;47.416;19.402;2023-04-12T14:34:43;4.60;;;2.28;;
63050;SDS011;49136;47.416;19.402;2023-04-12T14:37:10;6.65;;;2.13;;
63050;SDS011;49136;47.416;19.402;2023-04-12T14:39:36;4.45;;;2.50;;
63050;SDS011;49136;47.416;19.402;2023-04-12T14:42:01;6.43;;;2.05;;
63050;SDS011;49136;47.416;19.402;2023-04-12T14:44:27;3.10;;;1.88;;
63050;SDS011;49136;47.416;19.402;2023-04-12T14:46:53;3.42;;;1.98;;
63050;SDS011;49136;47.416;19.402;2023-04-12T14:49:18;4.50;;;2.78;;
63050;SDS011;49136;47.416;19.402;2023-04-12T14:51:43;5.97;;;2.58;;
63050;SDS011;49136;47.416;19.402;2023-04-12T14:54:09;3.78;;;1.80;;
63050;SDS011;49136;47.416;19.402;2023-04-12T14:56:35;2.83;;;1.80;;
63050;SDS011;49136;47.416;19.402;2023-04-12T14:59:00;8.35;;;3.33;;